Time;durP1;ratioP1;P1;durP2;ratioP2;P2;SDS_P1;SDS_P2;PMS_P1;PMS_P2;Temp;Humidity;BMP_temperature;BMP_pressure;BME280_temperature;BME280_humidity;BME280_pressure;Samples;Min_cycle;Max_cycle;Signal;HPM_P1;HPM_P2
2023/06/04 00:00:41;;;;;;;5.43;4.93;;;;;;;16.97;77.10;100241.25;5072039;28;20181;-77
2023/06/04 00:03:07;;;;;;;5.87;4.50;;;;;;;16.91;76.94;100239.69;5074395;28;20173;-77
2023/06/04 00:05:32;;;;;;;5.63;4.57;;;;;;;16.87;76.89;100238.09;5068646;28;20178;-76
2023/06/04 00:07:57;;;;;;;8.00;5.23;;;;;;;16.86;76.76;100235.53;5057040;28;20217;-77
2023/06/04 00:10:22;;;;;;;5.10;4.60;;;;;;;16.80;76.54;100244.44;5074458;28;20187;-77
2023/06/04 00:12:48;;;;;;;5.87;4.37;;;;;;;16.78;76.73;100238.44;5076906;28;20240;-76
2023/06/04 00:15:14;;;;;;;5.00;4.50;;;;;;;16.80;76.98;100231.38;5076962;28;20197;-76
2023/06/04 00:17:40;;;;;;;5.40;4.60;;;;;;;16.72;77.01;100231.63;5073225;28;20182;-76
2023/06/04 00:20:06;;;;;;;6.13;4.13;;;;;;;16.67;77.21;100236.19;5072035;28;20182;-77
2023/06/04 00:22:31;;;;;;;6.17;5.07;;;;;;;16.66;77.17;100236.22;5071916;28;20208;-77
2023/06/04 00:24:56;;;;;;;5.73;4.27;;;;;;;16.66;77.29;100231.88;5069604;28;20185;-76
2023/06/04 00:27:22;;;;;;;6.50;4.53;;;;;;;16.64;77.21;100231.06;5056848;28;20181;-77
2023/06/04 00:29:47;;;;;;;4.90;4.43;;;;;;;16.56;77.38;100225.28;5056869;28;20201;-76
2023/06/04 00:32:12;;;;;;;4.50;4.03;;;;;;;16.54;77.71;100230.53;5074323;28;20235;-76
2023/06/04 00:34:38;;;;;;;5.10;4.60;;;;;;;16.51;77.57;100229.78;5056966;28;21556;-76
2023/06/04 00:37:03;;;;;;;6.00;4.37;;;;;;;16.49;77.68;100231.59;5076026;28;20177;-75
2023/06/04 00:39:29;;;;;;;5.87;4.17;;;;;;;16.46;77.76;100232.56;5073662;28;20193;-77
2023/06/04 00:41:55;;;;;;;4.70;4.30;;;;;;;16.43;77.99;100230.06;5072123;28;20240;-76
2023/06/04 00:44:21;;;;;;;4.60;4.17;;;;;;;16.40;77.64;100227.53;5070619;28;20181;-77
2023/06/04 00:46:47;;;;;;;5.33;4.10;;;;;;;16.39;78.01;100234.53;5073684;28;20197;-75
2023/06/04 00:49:13;;;;;;;7.53;4.23;;;;;;;16.38;78.02;100234.56;5072245;28;20525;-76
2023/06/04 00:51:38;;;;;;;4.13;3.73;;;;;;;16.33;77.66;100232.13;5070993;28;20218;-74
2023/06/04 00:54:08;;;;;;;5.40;3.40;;;;;;;16.37;77.60;100240.69;5070740;28;20215;-75
2023/06/04 00:56:34;;;;;;;4.40;3.93;;;;;;;16.36;78.06;100237.25;5071918;28;20281;-76
2023/06/04 00:59:00;;;;;;;5.67;3.93;;;;;;;16.26;78.92;100236.69;5075713;28;20314;-75
2023/06/04 01:01:42;;;;;;;4.27;3.97;;;;;;;16.18;78.97;100237.84;5072998;28;20336;-75
2023/06/04 01:04:18;;;;;;;4.63;4.03;;;;;;;16.11;79.27;100240.66;5070272;28;20789;-75
2023/06/04 01:06:45;;;;;;;4.47;4.07;;;;;;;16.12;79.10;100238.91;5072011;28;20185;-76
2023/06/04 01:09:11;;;;;;;6.03;3.97;;;;;;;16.10;78.27;100244.19;5073732;28;20184;-75
2023/06/04 01:11:39;;;;;;;5.03;4.63;;;;;;;16.05;77.86;100245.22;5070333;28;20204;-75
2023/06/04 01:14:09;;;;;;;5.87;3.97;;;;;;;16.04;78.00;100243.50;5075181;28;20208;-75
2023/06/04 01:16:43;;;;;;;5.07;4.30;;;;;;;15.96;77.70;100247.25;5073757;28;20178;-76
2023/06/04 01:19:30;;;;;;;6.67;4.00;;;;;;;15.88;78.17;100251.88;5069251;28;20187;-75
2023/06/04 01:22:04;;;;;;;4.33;3.93;;;;;;;15.85;78.03;100250.19;5054834;28;20571;-76
2023/06/04 01:24:36;;;;;;;4.07;3.70;;;;;;;15.86;78.27;100248.44;5072882;28;20187;-77
2023/06/04 01:27:03;;;;;;;5.10;3.50;;;;;;;15.84;78.26;100250.22;5071561;28;20261;-77
2023/06/04 01:29:29;;;;;;;4.53;3.83;;;;;;;15.84;77.46;100247.59;5069870;28;20275;-76
2023/06/04 01:31:56;;;;;;;4.60;3.60;;;;;;;15.85;77.37;100242.34;5053707;28;20218;-77
2023/06/04 01:34:21;;;;;;;3.50;3.20;;;;;;;15.84;76.88;100238.00;5076385;28;20231;-78
2023/06/04 01:36:47;;;;;;;4.77;3.70;;;;;;;15.80;75.75;100239.03;5056829;28;20192;-76
2023/06/04 01:39:12;;;;;;;3.97;3.57;;;;;;;15.81;75.33;100235.50;5073894;28;20208;-76
2023/06/04 01:41:37;;;;;;;4.80;3.20;;;;;;;15.79;75.12;100236.44;5074560;28;20829;-77
2023/06/04 01:44:03;;;;;;;3.97;3.27;;;;;;;15.79;74.98;100239.06;5072942;28;20180;-76
2023/06/04 01:46:28;;;;;;;4.33;3.23;;;;;;;15.78;74.62;100243.44;5073510;28;20263;-75
2023/06/04 01:48:53;;;;;;;5.37;3.50;;;;;;;15.81;74.38;100242.47;5072166;28;20182;-76
2023/06/04 01:51:19;;;;;;;3.43;2.93;;;;;;;15.75;74.10;100243.53;5071346;28;20207;-74
2023/06/04 01:53:45;;;;;;;4.07;3.30;;;;;;;15.84;73.14;100251.06;5068447;28;20278;-77
2023/06/04 01:56:11;;;;;;;3.70;2.90;;;;;;;15.80;72.99;100251.22;5076303;28;20660;-76
2023/06/04 01:58:36;;;;;;;3.50;2.87;;;;;;;15.77;72.56;100251.28;5075884;28;20200;-75
2023/06/04 02:01:03;;;;;;;3.47;2.83;;;;;;;15.78;72.64;100256.50;5075134;28;20696;-75
2023/06/04 02:03:32;;;;;;;4.83;3.03;;;;;;;15.78;72.59;100255.63;5067885;28;20239;-75
2023/06/04 02:05:57;;;;;;;3.10;2.57;;;;;;;15.72;72.96;100256.66;5079399;28;20190;-76
2023/06/04 02:08:25;;;;;;;4.77;2.87;;;;;;;15.69;72.92;100254.16;5054166;28;20184;-75
2023/06/04 02:10:50;;;;;;;4.40;2.77;;;;;;;15.70;72.39;100255.84;5069230;28;20649;-75
2023/06/04 02:13:16;;;;;;;3.17;2.80;;;;;;;15.72;71.95;100243.63;5073517;28;20208;-77
2023/06/04 02:15:41;;;;;;;5.03;2.70;;;;;;;15.64;72.39;100246.47;5068677;28;20207;-77
2023/06/04 02:18:24;;;;;;;2.83;2.63;;;;;;;15.62;71.96;100255.25;5074617;28;20184;-76
2023/06/04 02:20:51;;;;;;;4.10;2.73;;;;;;;15.59;72.09;100256.19;5069745;28;20181;-77
2023/06/04 02:23:18;;;;;;;4.00;2.57;;;;;;;15.63;72.50;100256.97;5070148;28;20712;-75
2023/06/04 02:25:47;;;;;;;4.00;2.63;;;;;;;15.57;72.42;100263.22;5071392;28;20188;-75
2023/06/04 02:28:13;;;;;;;2.93;2.50;;;;;;;15.61;71.79;100270.03;5072848;28;20361;-76
2023/06/04 02:30:38;;;;;;;3.33;2.47;;;;;;;15.69;71.53;100264.56;5068537;28;20192;-75
2023/06/04 02:33:04;;;;;;;3.00;2.47;;;;;;;15.60;71.57;100268.31;5074457;28;20224;-76
2023/06/04 02:35:30;;;;;;;4.00;2.23;;;;;;;15.58;71.32;100267.50;5069573;28;20208;-77
2023/06/04 02:37:59;;;;;;;5.27;2.27;;;;;;;15.61;71.47;100263.97;5070420;28;20193;-79
2023/06/04 02:40:25;;;;;;;4.40;2.53;;;;;;;15.62;71.35;100257.84;5069096;28;20189;-75
2023/06/04 02:42:54;;;;;;;2.63;2.40;;;;;;;15.61;71.43;100256.16;5071745;28;20241;-76
2023/06/04 02:45:20;;;;;;;5.00;2.63;;;;;;;15.53;71.89;100259.81;5073542;28;21139;-77
2023/06/04 02:47:46;;;;;;;5.07;2.60;;;;;;;15.52;71.81;100255.50;5055263;28;20208;-76
2023/06/04 02:50:12;;;;;;;5.33;2.93;;;;;;;15.52;71.42;100259.88;5071130;28;20178;-76
2023/06/04 02:52:39;;;;;;;4.27;2.63;;;;;;;15.45;71.96;100255.75;5075675;28;21172;-76
2023/06/04 02:55:06;;;;;;;3.00;2.40;;;;;;;15.41;72.22;100268.03;5072447;28;20606;-76
2023/06/04 02:57:32;;;;;;;3.77;2.23;;;;;;;15.36;72.55;100267.28;5076736;28;20203;-76
2023/06/04 02:59:58;;;;;;;3.50;2.30;;;;;;;15.30;72.01;100272.69;5070469;28;20630;-76
2023/06/04 03:02:23;;;;;;;3.63;2.27;;;;;;;15.31;71.98;100272.66;5056369;28;20713;-77
2023/06/04 03:04:50;;;;;;;3.27;2.50;;;;;;;15.33;72.26;100272.63;5071568;28;20194;-76
2023/06/04 03:07:20;;;;;;;2.83;2.10;;;;;;;15.28;72.04;100270.13;5056715;28;20211;-74
2023/06/04 03:09:46;;;;;;;3.27;2.20;;;;;;;15.26;72.47;100274.56;5070715;28;20186;-75
2023/06/04 03:12:11;;;;;;;2.97;2.27;;;;;;;15.17;72.47;100277.41;5071531;28;20316;-77
2023/06/04 03:14:36;;;;;;;3.10;2.00;;;;;;;15.21;72.56;100279.03;5074546;28;20437;-76
2023/06/04 03:17:10;;;;;;;6.30;2.43;;;;;;;15.11;72.74;100283.66;5057382;28;20212;-75
2023/06/04 03:19:40;;;;;;;5.03;2.53;;;;;;;15.16;72.51;100292.19;5072491;28;20324;-76
2023/06/04 03:22:06;;;;;;;4.57;2.27;;;;;;;15.08;72.29;100275.91;5070290;28;20359;-75
2023/06/04 03:24:37;;;;;;;2.90;2.30;;;;;;;15.02;72.04;100271.72;5071488;28;20203;-76
2023/06/04 03:27:03;;;;;;;4.40;2.10;;;;;;;15.06;71.88;100278.56;5072453;28;20651;-75
2023/06/04 03:29:30;;;;;;;3.27;2.20;;;;;;;15.06;71.92;100280.31;5069696;28;20192;-75
2023/06/04 03:31:56;;;;;;;5.50;2.13;;;;;;;15.01;71.95;100272.63;5073783;28;20207;-76
2023/06/04 03:34:24;;;;;;;2.40;2.20;;;;;;;14.91;72.58;100276.38;5072720;28;20203;-76
2023/06/04 03:36:55;;;;;;;2.93;2.00;;;;;;;14.86;72.89;100273.91;5070047;28;20192;-76
2023/06/04 03:39:22;;;;;;;3.70;2.10;;;;;;;14.85;72.82;100292.16;5073588;28;20195;-74
2023/06/04 03:41:48;;;;;;;2.90;1.90;;;;;;;14.73;72.84;100275.97;5048284;28;20269;-75
2023/06/04 03:44:14;;;;;;;3.87;1.97;;;;;;;14.74;72.71;100287.25;5060250;28;20184;-76
2023/06/04 03:46:40;;;;;;;3.60;1.90;;;;;;;14.70;72.33;100281.25;5075170;28;20185;-75
2023/06/04 03:49:06;;;;;;;4.30;2.17;;;;;;;14.69;72.21;100270.88;5076397;28;20196;-77
2023/06/04 03:51:32;;;;;;;2.90;2.10;;;;;;;14.68;72.83;100287.41;5073795;28;20209;-77
2023/06/04 03:53:58;;;;;;;3.07;2.20;;;;;;;14.67;73.18;100283.06;5077679;28;20420;-77
2023/06/04 03:56:26;;;;;;;2.70;2.33;;;;;;;14.82;72.86;100281.84;5074433;28;20195;-75
2023/06/04 03:58:52;;;;;;;4.73;2.40;;;;;;;14.72;72.65;100278.63;5071097;28;20464;-78
2023/06/04 04:01:18;;;;;;;2.33;1.90;;;;;;;14.73;73.19;100280.34;5074895;28;20813;-76
2023/06/04 04:03:43;;;;;;;2.43;2.23;;;;;;;14.71;73.37;100277.75;5077234;28;20183;-77
2023/06/04 04:06:10;;;;;;;3.47;2.10;;;;;;;14.75;72.97;100282.00;5074569;28;20192;-76
2023/06/04 04:08:35;;;;;;;3.87;2.00;;;;;;;14.84;72.07;100291.31;5076713;28;20634;-75
2023/06/04 04:11:01;;;;;;;4.60;2.20;;;;;;;14.84;72.10;100286.13;5058017;28;20219;-75
2023/06/04 04:13:26;;;;;;;3.23;2.00;;;;;;;14.81;72.08;100286.19;5076505;28;20205;-77
2023/06/04 04:15:52;;;;;;;4.70;2.30;;;;;;;14.81;72.84;100285.34;5078252;28;20201;-76
2023/06/04 04:18:19;;;;;;;3.80;2.17;;;;;;;14.88;73.08;100292.97;5079850;28;20442;-76
2023/06/04 04:20:46;;;;;;;2.87;2.00;;;;;;;14.88;72.90;100295.56;5079133;28;20194;-75
2023/06/04 04:23:11;;;;;;;4.13;1.97;;;;;;;14.90;72.16;100295.50;5078492;28;20179;-76
2023/06/04 04:25:37;;;;;;;4.67;2.20;;;;;;;15.03;72.82;100291.69;5057436;28;20185;-76
2023/06/04 04:28:06;;;;;;;3.43;2.00;;;;;;;15.12;72.90;100294.94;5078847;28;20239;-76
2023/06/04 04:30:35;;;;;;;3.57;2.10;;;;;;;15.19;72.27;100309.50;5073414;28;20687;-75
2023/06/04 04:33:01;;;;;;;3.53;1.90;;;;;;;15.18;72.27;100308.66;5077692;28;20296;-76
2023/06/04 04:35:26;;;;;;;3.00;1.90;;;;;;;15.29;72.30;100297.91;5073555;28;20242;-77
2023/06/04 04:37:52;;;;;;;4.90;2.20;;;;;;;15.59;70.44;100316.16;5075045;28;20208;-76
2023/06/04 04:40:17;;;;;;;5.13;1.80;;;;;;;15.83;70.32;100306.75;5074037;28;20195;-75
2023/06/04 04:42:43;;;;;;;2.03;1.83;;;;;;;16.11;69.93;100305.09;5074512;28;20197;-75
2023/06/04 04:45:09;;;;;;;4.73;2.47;;;;;;;16.32;69.67;100305.31;5075537;28;21122;-76
2023/06/04 04:47:34;;;;;;;4.93;2.43;;;;;;;16.51;68.55;100305.56;5069506;28;20185;-76
2023/06/04 04:49:59;;;;;;;3.50;2.10;;;;;;;16.62;68.50;100306.03;5076487;28;20287;-76
2023/06/04 04:52:25;;;;;;;3.73;2.07;;;;;;;16.69;68.29;100309.28;5075537;28;20201;-75
2023/06/04 04:54:52;;;;;;;3.23;1.83;;;;;;;16.83;68.01;100303.59;5069642;28;20495;-75
2023/06/04 04:57:17;;;;;;;3.93;2.07;;;;;;;16.85;68.13;100302.63;5075872;28;20769;-75
2023/06/04 04:59:42;;;;;;;3.83;2.37;;;;;;;16.83;67.81;100306.22;5073092;28;20182;-77
2023/06/04 05:02:08;;;;;;;3.27;2.00;;;;;;;16.96;67.58;100306.66;5070822;28;20209;-77
2023/06/04 05:04:33;;;;;;;3.17;2.30;;;;;;;17.01;67.45;100299.50;5072099;28;20185;-77
2023/06/04 05:06:58;;;;;;;2.40;2.17;;;;;;;17.19;67.07;100308.44;5061481;28;20703;-76
2023/06/04 05:09:23;;;;;;;2.93;2.33;;;;;;;17.37;66.09;100302.53;5072668;28;20194;-77
2023/06/04 05:11:49;;;;;;;2.93;2.20;;;;;;;17.46;65.97;100303.13;5072424;28;20204;-78
2023/06/04 05:14:14;;;;;;;3.40;2.10;;;;;;;17.68;66.15;100306.63;5076654;28;20212;-75
2023/06/04 05:16:40;;;;;;;3.23;2.37;;;;;;;17.72;65.24;100314.38;5074953;28;20581;-76
2023/06/04 05:19:06;;;;;;;4.13;2.10;;;;;;;17.85;65.45;100304.28;5078524;28;20185;-78
2023/06/04 05:21:31;;;;;;;3.67;2.17;;;;;;;18.08;65.14;100306.88;5055609;28;20213;-76
2023/06/04 05:23:57;;;;;;;3.67;2.10;;;;;;;18.26;64.28;100307.88;5074087;28;20173;-77
2023/06/04 05:26:25;;;;;;;3.33;2.30;;;;;;;18.22;64.06;100308.94;5061779;28;20527;-77
2023/06/04 05:28:50;;;;;;;2.43;2.10;;;;;;;18.28;64.33;100310.47;5073906;28;20201;-77
2023/06/04 05:31:18;;;;;;;2.67;1.90;;;;;;;18.55;64.60;100305.81;5076402;28;20344;-75
2023/06/04 05:33:43;;;;;;;3.67;2.37;;;;;;;18.61;63.56;100315.19;5074485;28;20201;-77
2023/06/04 05:36:09;;;;;;;3.67;2.20;;;;;;;18.70;64.13;100311.31;5077200;28;20185;-77
2023/06/04 05:38:35;;;;;;;5.10;2.20;;;;;;;18.71;63.77;100319.16;5081448;28;20189;-76
2023/06/04 05:41:01;;;;;;;3.00;2.00;;;;;;;18.82;63.65;100318.69;5073874;28;20246;-77
2023/06/04 05:43:26;;;;;;;2.97;2.17;;;;;;;18.76;63.36;100318.94;5078470;28;20174;-76
2023/06/04 05:45:52;;;;;;;2.83;2.10;;;;;;;18.83;63.51;100327.41;5079137;28;20201;-75
2023/06/04 05:48:17;;;;;;;4.00;2.40;;;;;;;18.79;63.71;100318.81;5078075;28;20685;-76
2023/06/04 05:50:42;;;;;;;5.57;2.17;;;;;;;18.72;63.96;100317.38;5076529;28;20188;-76
2023/06/04 05:53:08;;;;;;;3.37;2.50;;;;;;;18.75;63.60;100314.63;5078853;28;20209;-76
2023/06/04 05:55:33;;;;;;;4.77;2.47;;;;;;;18.79;63.62;100316.19;5078953;28;20181;-76
2023/06/04 05:57:58;;;;;;;3.30;2.10;;;;;;;18.77;64.18;100319.78;5079480;28;20208;-77
2023/06/04 06:00:24;;;;;;;3.47;2.30;;;;;;;18.91;63.36;100321.81;5098743;28;20201;-79
2023/06/04 06:02:50;;;;;;;2.70;2.40;;;;;;;19.12;63.24;100328.81;5098112;28;20210;-78
2023/06/04 06:05:18;;;;;;;3.60;2.37;;;;;;;19.12;62.89;100317.44;5077611;28;20200;-78
2023/06/04 06:07:44;;;;;;;5.47;2.23;;;;;;;19.09;63.31;100318.44;5077269;28;20181;-75
2023/06/04 06:10:09;;;;;;;3.23;2.20;;;;;;;19.08;62.99;100315.88;5055750;28;20184;-76
2023/06/04 06:12:35;;;;;;;5.07;2.43;;;;;;;19.24;62.71;100318.69;5067906;28;20632;-77
2023/06/04 06:15:00;;;;;;;4.87;2.13;;;;;;;19.23;62.69;100309.94;5069265;28;20190;-76
2023/06/04 06:17:26;;;;;;;4.17;2.03;;;;;;;19.15;62.73;100318.16;5068627;28;20577;-78
2023/06/04 06:19:52;;;;;;;2.83;1.83;;;;;;;19.02;63.34;100328.34;5074366;28;20194;-77
2023/06/04 06:22:17;;;;;;;1.67;1.57;;;;;;;18.95;63.25;100319.03;5073509;28;20829;-76
2023/06/04 06:24:42;;;;;;;2.33;1.80;;;;;;;19.14;63.49;100323.47;5074669;28;20230;-77
2023/06/04 06:27:08;;;;;;;4.90;2.20;;;;;;;19.16;63.08;100321.63;5057371;28;20200;-76
2023/06/04 06:29:33;;;;;;;4.30;2.00;;;;;;;19.54;63.44;100324.28;5073839;28;20189;-77
2023/06/04 06:31:59;;;;;;;3.27;1.90;;;;;;;19.54;63.35;100332.16;5075081;28;20340;-78
2023/06/04 06:34:24;;;;;;;2.27;1.83;;;;;;;19.76;63.34;100334.66;5076187;28;20197;-78
2023/06/04 06:36:50;;;;;;;4.23;2.03;;;;;;;19.91;63.20;100338.38;5057050;28;20197;-76
2023/06/04 06:39:15;;;;;;;4.03;2.03;;;;;;;20.18;62.39;100343.22;5055828;28;20231;-76
2023/06/04 06:41:41;;;;;;;3.63;2.20;;;;;;;20.27;62.00;100341.94;5069936;28;20209;-76
2023/06/04 06:44:07;;;;;;;3.27;2.10;;;;;;;20.26;62.70;100348.13;5076826;28;20658;-76
2023/06/04 06:46:32;;;;;;;3.07;2.00;;;;;;;20.32;62.67;100339.94;5058674;28;20570;-77
2023/06/04 06:48:57;;;;;;;4.43;2.17;;;;;;;20.48;62.15;100349.69;5074743;28;20215;-76
2023/06/04 06:51:23;;;;;;;2.83;1.97;;;;;;;20.86;62.38;100344.31;5074837;28;20269;-78
2023/06/04 06:53:51;;;;;;;4.23;2.10;;;;;;;20.84;61.83;100351.44;5073232;28;20209;-78
2023/06/04 06:56:18;;;;;;;3.53;2.03;;;;;;;21.05;61.33;100346.84;5055792;28;20192;-77
2023/06/04 06:58:43;;;;;;;1.83;1.70;;;;;;;21.05;61.65;100346.00;5072048;28;20192;-77
2023/06/04 07:01:09;;;;;;;2.63;2.20;;;;;;;20.83;61.66;100345.31;5075864;28;20209;-77
2023/06/04 07:03:34;;;;;;;3.10;2.57;;;;;;;20.74;62.23;100344.91;5070987;28;20235;-78
2023/06/04 07:06:00;;;;;;;2.87;2.23;;;;;;;20.83;61.79;100355.84;5054416;28;20697;-76
2023/06/04 07:08:25;;;;;;;3.00;1.73;;;;;;;20.93;62.02;100352.72;5070185;28;20591;-77
2023/06/04 07:10:51;;;;;;;3.80;2.37;;;;;;;20.89;61.32;100345.91;5069878;28;20241;-77
2023/06/04 07:13:16;;;;;;;3.83;2.00;;;;;;;21.30;61.65;100356.09;5071579;28;20201;-76
2023/06/04 07:15:42;;;;;;;5.77;2.37;;;;;;;21.29;61.14;100357.03;5071967;28;20205;-76
2023/06/04 07:18:07;;;;;;;2.37;2.00;;;;;;;21.22;60.84;100356.50;5075343;28;20562;-76
2023/06/04 07:20:32;;;;;;;3.33;2.00;;;;;;;21.29;61.15;100354.41;5071789;28;20185;-79
2023/06/04 07:22:58;;;;;;;2.57;2.00;;;;;;;21.42;61.05;100357.19;5055630;28;20701;-76
2023/06/04 07:25:23;;;;;;;5.97;2.27;;;;;;;21.32;60.22;100375.28;5071170;28;20850;-75
2023/06/04 07:27:50;;;;;;;4.67;1.83;;;;;;;21.36;61.02;100370.72;5073380;28;20505;-75
2023/06/04 07:30:16;;;;;;;2.33;2.13;;;;;;;21.43;60.78;100366.81;5057978;28;20236;-76
2023/06/04 07:32:45;;;;;;;3.70;1.87;;;;;;;21.52;60.27;100360.19;5071426;28;20647;-77
2023/06/04 07:35:11;;;;;;;2.10;1.70;;;;;;;21.80;60.56;100372.75;5061362;28;20181;-78
2023/06/04 07:37:36;;;;;;;3.00;2.13;;;;;;;21.95;60.45;100373.69;5065760;28;20181;-77
2023/06/04 07:40:03;;;;;;;2.57;2.07;;;;;;;21.89;59.71;100374.03;5076226;28;20325;-77
2023/06/04 07:42:29;;;;;;;3.57;2.00;;;;;;;22.17;59.35;100375.97;5074823;28;20205;-77
2023/06/04 07:44:54;;;;;;;5.83;2.40;;;;;;;22.15;59.69;100358.56;5072057;28;20906;-76
2023/06/04 07:47:20;;;;;;;3.83;1.87;;;;;;;22.08;59.19;100366.78;5073964;28;20181;-76
2023/06/04 07:49:45;;;;;;;3.03;2.30;;;;;;;21.84;60.29;100362.91;5073620;28;20270;-76
2023/06/04 07:52:11;;;;;;;2.60;2.00;;;;;;;22.03;59.73;100360.09;5059248;28;20201;-77
2023/06/04 07:54:37;;;;;;;3.03;1.90;;;;;;;21.94;60.18;100371.97;5073114;28;20247;-76
2023/06/04 07:57:02;;;;;;;2.87;1.70;;;;;;;22.06;59.34;100363.41;5070257;28;20186;-76
2023/06/04 07:59:29;;;;;;;4.17;2.00;;;;;;;21.92;60.33;100368.63;5072644;28;20429;-77
2023/06/04 08:01:54;;;;;;;3.70;2.10;;;;;;;22.12;60.02;100361.34;5072277;28;20194;-76
2023/06/04 08:04:20;;;;;;;3.33;2.10;;;;;;;22.25;58.96;100362.34;5073140;28;20192;-76
2023/06/04 08:06:46;;;;;;;2.80;1.80;;;;;;;22.16;59.97;100361.09;5072923;28;20189;-76
2023/06/04 08:09:12;;;;;;;1.97;1.77;;;;;;;22.01;59.92;100352.28;5075757;28;20182;-76
2023/06/04 08:11:41;;;;;;;2.00;1.87;;;;;;;22.02;59.66;100353.97;5067638;28;20205;-76
2023/06/04 08:14:06;;;;;;;5.47;2.50;;;;;;;22.10;60.37;100350.06;5074541;28;20717;-77
2023/06/04 08:16:32;;;;;;;3.37;2.30;;;;;;;21.99;59.50;100367.31;5057512;28;20190;-80
2023/06/04 08:18:57;;;;;;;4.20;2.00;;;;;;;21.73;60.80;100352.94;5068024;28;20189;-76
2023/06/04 08:21:28;;;;;;;2.33;2.00;;;;;;;21.73;60.70;100360.84;5068591;28;20202;-78
2023/06/04 08:23:55;;;;;;;2.20;1.93;;;;;;;21.65;60.83;100357.78;5057671;28;20185;-76
2023/06/04 08:26:20;;;;;;;3.83;2.03;;;;;;;21.55;61.02;100352.16;5070085;28;20538;-77
2023/06/04 08:28:49;;;;;;;5.00;2.23;;;;;;;21.59;61.12;100361.59;5069317;28;20610;-79
2023/06/04 08:31:14;;;;;;;2.87;2.03;;;;;;;21.57;61.30;100352.91;5073579;28;21975;-77
2023/06/04 08:33:40;;;;;;;3.13;2.10;;;;;;;21.62;60.94;100346.50;5078380;28;20210;-77
2023/06/04 08:36:06;;;;;;;3.00;2.00;;;;;;;21.76;61.07;100360.69;5075280;28;20189;-78
2023/06/04 08:38:32;;;;;;;3.03;2.10;;;;;;;21.80;61.80;100354.31;5077735;28;20234;-75
2023/06/04 08:41:05;;;;;;;3.37;1.87;;;;;;;21.86;61.91;100353.97;5071947;28;20189;-76
2023/06/04 08:43:32;;;;;;;6.67;2.67;;;;;;;21.89;61.71;100353.81;5082619;28;20188;-77
2023/06/04 08:46:01;;;;;;;3.73;2.47;;;;;;;21.96;61.19;100364.00;5074887;28;20642;-76
2023/06/04 08:48:29;;;;;;;3.50;2.20;;;;;;;21.89;61.35;100363.50;5076891;28;20186;-75
2023/06/04 08:50:57;;;;;;;6.30;2.40;;;;;;;22.03;61.44;100366.22;5077027;28;20193;-76
2023/06/04 08:53:22;;;;;;;3.57;2.17;;;;;;;22.00;61.65;100366.38;5073265;28;20190;-75
2023/06/04 08:55:50;;;;;;;3.03;2.03;;;;;;;21.96;62.17;100366.66;5070871;28;20188;-77
2023/06/04 08:58:18;;;;;;;3.07;2.00;;;;;;;21.99;62.29;100366.50;5074536;28;20264;-78
2023/06/04 09:00:43;;;;;;;3.27;1.93;;;;;;;21.98;61.77;100368.25;5071277;28;20326;-77
2023/06/04 09:03:10;;;;;;;3.23;2.20;;;;;;;22.01;61.79;100385.66;5075326;28;20284;-76
2023/06/04 09:05:36;;;;;;;3.47;2.00;;;;;;;22.05;62.21;100389.84;5073381;28;20277;-77
2023/06/04 09:08:04;;;;;;;2.60;2.00;;;;;;;21.95;61.59;100391.28;5077800;28;20664;-77
2023/06/04 09:10:31;;;;;;;3.33;1.90;;;;;;;21.95;62.28;100388.66;5068920;28;20677;-79
2023/06/04 09:13:02;;;;;;;5.27;2.10;;;;;;;22.06;62.18;100383.63;5073146;28;20201;-77
2023/06/04 09:15:27;;;;;;;4.67;2.17;;;;;;;22.14;61.90;100383.22;5075038;28;20184;-76
2023/06/04 09:17:52;;;;;;;2.73;2.07;;;;;;;22.17;62.08;100390.94;5070915;28;20185;-77
2023/06/04 09:20:21;;;;;;;2.47;1.90;;;;;;;22.31;62.34;100377.84;5078915;28;20193;-76
2023/06/04 09:22:47;;;;;;;2.20;1.90;;;;;;;22.34;61.72;100385.59;5074390;28;20205;-75
2023/06/04 09:25:26;;;;;;;4.97;1.97;;;;;;;22.37;60.83;100376.63;5073578;28;20190;-77
2023/06/04 09:27:56;;;;;;;3.30;2.10;;;;;;;22.42;61.36;100372.00;5079817;28;20812;-77
2023/06/04 09:30:23;;;;;;;2.70;1.87;;;;;;;22.53;61.42;100382.75;5070022;28;20183;-77
2023/06/04 09:32:48;;;;;;;3.03;2.23;;;;;;;22.59;61.91;100386.84;5059279;28;20205;-76
2023/06/04 09:35:16;;;;;;;4.43;2.53;;;;;;;22.64;60.94;100381.28;5060357;28;20193;-76
2023/06/04 09:37:42;;;;;;;3.07;2.37;;;;;;;22.72;60.89;100386.97;5070732;28;20260;-77
2023/06/04 09:40:08;;;;;;;4.30;1.73;;;;;;;22.95;60.40;100377.72;5054720;28;20182;-76
2023/06/04 09:42:49;;;;;;;3.50;2.10;;;;;;;23.06;60.37;100385.00;5067860;28;20201;-76
2023/06/04 09:45:26;;;;;;;2.87;2.00;;;;;;;22.97;58.97;100375.84;5072761;28;20223;-76
2023/06/04 09:47:52;;;;;;;4.90;2.50;;;;;;;23.02;59.85;100379.97;5068412;28;20185;-75
2023/06/04 09:50:25;;;;;;;4.27;2.37;;;;;;;22.86;58.81;100380.03;5069698;28;20536;-77
2023/06/04 09:52:52;;;;;;;5.00;2.13;;;;;;;22.80;60.24;100382.09;5073559;28;20581;-77
2023/06/04 09:55:19;;;;;;;3.30;2.20;;;;;;;22.94;60.35;100370.72;5069772;28;20187;-77
2023/06/04 09:57:48;;;;;;;4.10;2.37;;;;;;;23.02;59.50;100374.69;5068078;28;20196;-75
2023/06/04 10:00:16;;;;;;;3.83;2.00;;;;;;;23.13;60.05;100361.72;5069790;28;20426;-78
2023/06/04 10:02:44;;;;;;;4.00;2.30;;;;;;;23.20;59.03;100378.03;5070605;28;20205;-77
2023/06/04 10:05:13;;;;;;;2.17;1.97;;;;;;;23.22;59.55;100362.94;5056199;28;20188;-76
2023/06/04 10:07:39;;;;;;;3.30;2.40;;;;;;;23.12;58.74;100365.28;5069203;28;20269;-76
2023/06/04 10:10:05;;;;;;;2.60;2.23;;;;;;;23.23;58.92;100356.72;5069348;28;20638;-77
2023/06/04 10:12:35;;;;;;;3.77;2.50;;;;;;;23.19;58.71;100361.31;5052006;28;20201;-77
2023/06/04 10:15:11;;;;;;;5.60;2.43;;;;;;;23.13;59.80;100367.81;5070359;28;20197;-76
2023/06/04 10:17:37;;;;;;;3.80;2.20;;;;;;;23.10;59.00;100351.34;5071149;28;20220;-76
2023/06/04 10:20:05;;;;;;;2.93;2.40;;;;;;;23.33;59.07;100352.59;5070231;28;20775;-76
2023/06/04 10:22:31;;;;;;;2.67;2.17;;;;;;;23.29;58.91;100357.19;5073882;28;20266;-75
2023/06/04 10:25:00;;;;;;;3.50;2.40;;;;;;;23.28;58.14;100358.16;5070071;28;20185;-77
2023/06/04 10:27:26;;;;;;;2.87;2.40;;;;;;;23.24;58.38;100342.59;5073482;28;20182;-75
2023/06/04 10:29:52;;;;;;;3.93;2.40;;;;;;;23.27;58.92;100359.09;5065593;28;20255;-75
2023/06/04 10:32:18;;;;;;;2.30;2.10;;;;;;;23.22;58.08;100347.97;5069968;28;20200;-76
2023/06/04 10:34:44;;;;;;;3.90;2.60;;;;;;;23.30;58.23;100352.78;5051428;28;20723;-77
2023/06/04 10:37:21;;;;;;;2.87;2.40;;;;;;;23.38;59.15;100349.66;5051151;28;20661;-76
2023/06/04 10:39:52;;;;;;;3.23;2.23;;;;;;;23.44;58.49;100349.31;5066477;28;20198;-77
2023/06/04 10:42:18;;;;;;;2.70;2.50;;;;;;;23.59;58.27;100347.47;5071502;28;20197;-76
2023/06/04 10:44:49;;;;;;;5.30;2.40;;;;;;;23.61;58.58;100356.16;5066815;28;20178;-76
2023/06/04 10:47:25;;;;;;;6.20;2.83;;;;;;;23.66;57.84;100343.53;5052107;28;20185;-77
2023/06/04 10:49:51;;;;;;;4.23;2.20;;;;;;;23.68;58.54;100349.53;5063545;28;20715;-77
2023/06/04 10:52:17;;;;;;;4.30;2.20;;;;;;;23.81;58.04;100346.97;5066610;28;20211;-76
2023/06/04 10:54:44;;;;;;;2.77;2.40;;;;;;;23.87;57.61;100349.22;5052965;28;20697;-76
2023/06/04 10:57:16;;;;;;;4.23;2.50;;;;;;;23.97;57.22;100346.00;5071438;28;20243;-77
2023/06/04 10:59:57;;;;;;;5.17;2.60;;;;;;;23.93;56.84;100344.47;5069559;28;20186;-77
2023/06/04 11:02:22;;;;;;;3.70;2.50;;;;;;;23.81;57.06;100351.41;5069919;28;20562;-77
2023/06/04 11:05:01;;;;;;;3.70;2.27;;;;;;;23.81;57.16;100336.41;5069580;28;20180;-76
2023/06/04 11:07:27;;;;;;;5.27;2.47;;;;;;;23.90;57.42;100342.88;5067043;28;20177;-76
2023/06/04 11:09:52;;;;;;;2.53;2.20;;;;;;;23.96;57.10;100354.84;5066308;28;20213;-76
2023/06/04 11:12:17;;;;;;;3.30;2.50;;;;;;;23.80;56.35;100345.28;5055112;28;20212;-77
2023/06/04 11:14:56;;;;;;;5.67;2.73;;;;;;;23.79;56.15;100355.94;5067503;28;20574;-76
2023/06/04 11:17:21;;;;;;;3.27;2.17;;;;;;;23.90;57.19;100335.78;5070322;28;20180;-75
2023/06/04 11:19:47;;;;;;;4.00;2.30;;;;;;;23.95;57.09;100332.00;5067026;28;20483;-76
2023/06/04 11:22:12;;;;;;;3.43;2.40;;;;;;;24.01;56.92;100337.78;5051826;28;20215;-76